createdAt,value
2023-05-19T00:01:15.237Z,10.87
2023-05-19T00:03:52.631Z,10.82
2023-05-19T00:06:24.094Z,10.75
2023-05-19T00:08:58.041Z,10.74
2023-05-19T00:11:27.991Z,10.75
2023-05-19T00:13:56.614Z,10.70
2023-05-19T00:16:26.157Z,10.59
2023-05-19T00:18:54.423Z,10.24
2023-05-19T00:21:22.475Z,9.96
2023-05-19T00:23:50.558Z,9.82
2023-05-19T00:26:18.579Z,9.63
2023-05-19T00:28:47.911Z,9.65
2023-05-19T00:31:15.940Z,9.64
2023-05-19T00:33:43.994Z,9.78
2023-05-19T00:36:11.930Z,9.89
2023-05-19T00:38:40.083Z,9.93
2023-05-19T00:41:08.675Z,10.01
2023-05-19T00:43:36.595Z,10.12
2023-05-19T00:46:07.407Z,10.16
2023-05-19T00:48:35.417Z,10.23
2023-05-19T00:51:06.462Z,10.27
2023-05-19T00:53:35.523Z,10.12
2023-05-19T00:56:04.282Z,9.77
2023-05-19T00:58:33.084Z,9.51
2023-05-19T01:01:04.251Z,9.42
2023-05-19T01:03:36.129Z,9.43
2023-05-19T01:06:06.046Z,9.62
2023-05-19T01:08:34.561Z,9.64
2023-05-19T01:11:02.641Z,9.81
2023-05-19T01:13:31.281Z,9.93
2023-05-19T01:16:06.828Z,10.01
2023-05-19T01:18:49.007Z,10.05
2023-05-19T01:21:36.534Z,10.05
2023-05-19T01:24:18.093Z,9.80
2023-05-19T01:27:11.087Z,9.58
2023-05-19T01:30:02.136Z,9.63
2023-05-19T01:32:32.064Z,9.74
2023-05-19T01:35:00.202Z,9.81
2023-05-19T01:37:28.569Z,9.79
2023-05-19T01:39:56.915Z,9.76
2023-05-19T01:42:25.056Z,9.70
2023-05-19T01:44:53.551Z,9.67
2023-05-19T01:47:21.504Z,9.61
2023-05-19T01:49:50.847Z,9.58
2023-05-19T01:52:18.865Z,9.53
2023-05-19T01:54:46.789Z,9.60
2023-05-19T01:57:29.243Z,9.67
2023-05-19T02:00:05.707Z,9.65
2023-05-19T02:02:42.383Z,9.63
2023-05-19T02:05:16.854Z,9.61
2023-05-19T02:07:48.531Z,9.57
2023-05-19T02:10:20.598Z,9.61
2023-05-19T02:12:51.259Z,9.61
2023-05-19T02:15:22.825Z,9.57
2023-05-19T02:17:54.431Z,9.52
2023-05-19T02:20:23.806Z,9.55
2023-05-19T02:22:51.793Z,9.52
2023-05-19T02:25:19.820Z,9.46
2023-05-19T02:27:49.164Z,9.39
2023-05-19T02:30:17.126Z,9.36
2023-05-19T02:32:46.913Z,9.48
2023-05-19T02:35:14.978Z,9.47
2023-05-19T02:37:44.416Z,9.47
2023-05-19T02:40:12.712Z,9.52
2023-05-19T02:42:40.720Z,9.47
2023-05-19T02:45:09.660Z,9.44
2023-05-19T02:47:38.412Z,9.36
2023-05-19T02:50:07.607Z,9.45
2023-05-19T02:52:35.527Z,9.47
2023-05-19T02:55:05.020Z,9.49
2023-05-19T02:57:34.268Z,9.50
2023-05-19T03:00:02.436Z,9.47
2023-05-19T03:02:30.819Z,9.47
2023-05-19T03:05:01.630Z,9.39
2023-05-19T03:07:30.780Z,9.30
2023-05-19T03:09:58.741Z,9.22
2023-05-19T03:12:28.053Z,9.28
2023-05-19T03:14:55.967Z,9.22
2023-05-19T03:17:23.983Z,9.23
2023-05-19T03:19:52.255Z,9.24
2023-05-19T03:22:20.989Z,9.02
2023-05-19T03:24:51.135Z,9.14
2023-05-19T03:27:19.110Z,9.17
2023-05-19T03:29:48.444Z,9.11
2023-05-19T03:32:16.465Z,9.08
2023-05-19T03:34:44.382Z,9.01
2023-05-19T03:37:13.007Z,9.08
2023-05-19T03:39:40.927Z,9.00
2023-05-19T03:42:09.073Z,9.06
2023-05-19T03:44:37.051Z,9.05
2023-05-19T03:47:07.078Z,9.08
2023-05-19T03:49:35.017Z,9.12
2023-05-19T03:52:03.455Z,9.07
2023-05-19T03:54:31.776Z,9.13
2023-05-19T03:56:59.756Z,9.12
2023-05-19T03:59:27.988Z,9.07
2023-05-19T04:01:57.914Z,9.04
2023-05-19T04:04:28.453Z,9.02
2023-05-19T04:06:56.528Z,9.04
2023-05-19T04:09:24.679Z,9.14
2023-05-19T04:11:52.617Z,9.19
2023-05-19T04:14:21.248Z,9.19
2023-05-19T04:16:49.273Z,9.26
2023-05-19T04:19:17.243Z,9.25
2023-05-19T04:21:47.056Z,9.12
2023-05-19T04:24:14.962Z,9.21
2023-05-19T04:26:46.100Z,9.22
2023-05-19T04:29:18.184Z,9.28
2023-05-19T04:31:46.753Z,9.24
2023-05-19T04:34:14.684Z,9.29
2023-05-19T04:36:42.689Z,9.15
2023-05-19T04:39:12.437Z,9.27
2023-05-19T04:41:40.646Z,9.34
2023-05-19T04:44:09.106Z,9.33
2023-05-19T04:46:37.113Z,9.34
2023-05-19T04:49:05.052Z,9.34
2023-05-19T04:51:33.032Z,9.32
2023-05-19T04:54:01.579Z,9.28
2023-05-19T04:56:31.009Z,9.26
2023-05-19T04:58:58.960Z,9.21
2023-05-19T05:01:27.012Z,9.33
2023-05-19T05:03:56.228Z,9.26
2023-05-19T05:06:24.202Z,9.36
2023-05-19T05:08:52.671Z,9.46
2023-05-19T05:11:21.446Z,9.53
2023-05-19T05:13:51.469Z,9.52
2023-05-19T05:16:19.950Z,9.58
2023-05-19T05:18:48.490Z,9.57
2023-05-19T05:21:16.995Z,9.57
2023-05-19T05:23:45.487Z,9.55
2023-05-19T05:26:19.339Z,9.55
2023-05-19T05:28:47.268Z,9.57
2023-05-19T05:31:17.070Z,9.64
2023-05-19T05:33:45.156Z,9.70
2023-05-19T05:36:13.766Z,9.77
2023-05-19T05:38:41.730Z,9.79
2023-05-19T05:41:09.734Z,9.81
2023-05-19T05:43:37.760Z,9.86
2023-05-19T05:46:05.834Z,9.99
2023-05-19T05:48:36.002Z,10.06
2023-05-19T05:51:04.573Z,9.99
2023-05-19T05:53:33.202Z,9.93
2023-05-19T05:56:01.760Z,9.94
2023-05-19T05:58:29.865Z,10.02
2023-05-19T06:00:58.788Z,10.10
2023-05-19T06:03:27.006Z,10.12
2023-05-19T06:05:56.628Z,10.17
2023-05-19T06:08:24.678Z,10.21
2023-05-19T06:10:52.652Z,10.30
2023-05-19T06:13:24.091Z,10.45
2023-05-19T06:15:52.768Z,10.59
2023-05-19T06:18:20.769Z,10.71
2023-05-19T06:20:48.716Z,10.82
2023-05-19T06:23:18.027Z,10.97
2023-05-19T06:25:46.170Z,11.03
2023-05-19T06:28:14.115Z,11.14
2023-05-19T06:30:42.100Z,11.32
2023-05-19T06:33:10.052Z,11.47
2023-05-19T06:35:38.025Z,11.60
2023-05-19T06:38:05.997Z,11.72
2023-05-19T06:40:36.085Z,11.83
2023-05-19T06:43:06.997Z,12.02
2023-05-19T06:45:34.979Z,12.10
2023-05-19T06:48:03.069Z,12.14
2023-05-19T06:50:31.333Z,12.24
2023-05-19T06:52:59.589Z,12.30
2023-05-19T06:55:27.581Z,12.36
2023-05-19T06:57:57.465Z,12.66
2023-05-19T07:00:25.450Z,12.61
2023-05-19T07:02:53.570Z,12.77
2023-05-19T07:05:21.807Z,13.05
2023-05-19T07:07:51.881Z,13.25
2023-05-19T07:10:21.501Z,13.34
2023-05-19T07:12:49.541Z,13.43
2023-05-19T07:15:18.913Z,13.54
2023-05-19T07:17:46.904Z,13.62
2023-05-19T07:20:15.036Z,13.78
2023-05-19T07:22:42.999Z,13.89
2023-05-19T07:25:11.495Z,13.74
2023-05-19T07:27:39.452Z,13.92
2023-05-19T07:30:08.826Z,14.01
2023-05-19T07:32:38.257Z,14.12
2023-05-19T07:35:07.568Z,14.24
2023-05-19T07:37:36.078Z,14.41
2023-05-19T07:40:04.487Z,14.41
2023-05-19T07:42:32.404Z,14.54
2023-05-19T07:45:00.324Z,14.69
2023-05-19T07:47:28.380Z,14.76
2023-05-19T07:49:57.695Z,14.93
2023-05-19T07:52:25.671Z,15.01
2023-05-19T07:54:54.076Z,15.07
2023-05-19T07:57:22.160Z,15.27
2023-05-19T07:59:50.111Z,15.34
2023-05-19T08:02:18.213Z,15.34
2023-05-19T08:04:46.281Z,15.41
2023-05-19T08:07:15.642Z,15.38
2023-05-19T08:09:43.641Z,15.40
2023-05-19T08:12:11.624Z,15.48
2023-05-19T08:14:39.550Z,15.59
2023-05-19T08:17:07.494Z,15.79
2023-05-19T08:19:35.569Z,15.89
2023-05-19T08:22:06.058Z,15.92
2023-05-19T08:24:35.515Z,15.91
2023-05-19T08:27:04.881Z,16.08
2023-05-19T08:29:32.935Z,15.90
2023-05-19T08:32:02.529Z,16.14
2023-05-19T08:34:30.515Z,15.98
2023-05-19T08:36:59.778Z,16.15
2023-05-19T08:39:27.759Z,16.25
2023-05-19T08:41:57.316Z,16.11
2023-05-19T08:44:25.309Z,16.50
2023-05-19T08:46:55.773Z,16.68
2023-05-19T08:49:28.630Z,16.79
2023-05-19T08:52:11.189Z,16.92
2023-05-19T08:54:43.834Z,16.95
2023-05-19T08:57:13.860Z,16.99
2023-05-19T08:59:42.472Z,16.92
2023-05-19T09:02:12.963Z,17.00
2023-05-19T09:04:41.633Z,17.02
2023-05-19T09:07:10.934Z,16.81
2023-05-19T09:09:40.860Z,16.97
2023-05-19T09:12:08.783Z,16.93
2023-05-19T09:14:38.230Z,16.75
2023-05-19T09:17:06.734Z,16.76
2023-05-19T09:19:34.943Z,16.51
2023-05-19T09:22:04.775Z,16.65
2023-05-19T09:24:33.076Z,16.71
2023-05-19T09:27:01.038Z,16.78
2023-05-19T09:29:28.995Z,17.02
2023-05-19T09:32:01.652Z,17.30
2023-05-19T09:34:29.713Z,17.45
2023-05-19T09:36:58.048Z,17.84
2023-05-19T09:39:26.318Z,18.15
2023-05-19T09:41:54.704Z,18.24
2023-05-19T09:44:29.271Z,18.46
2023-05-19T09:46:59.830Z,18.46
2023-05-19T09:49:29.770Z,18.56
2023-05-19T09:51:58.181Z,18.66
2023-05-19T09:54:27.626Z,18.74
2023-05-19T09:57:00.081Z,18.85
2023-05-19T09:59:31.522Z,18.94
2023-05-19T10:02:03.170Z,18.72
2023-05-19T10:04:32.064Z,19.11
2023-05-19T10:07:00.511Z,18.95
2023-05-19T10:09:29.977Z,19.38
2023-05-19T10:11:59.143Z,19.45
2023-05-19T10:14:27.651Z,19.74
2023-05-19T10:16:56.727Z,19.66
2023-05-19T10:19:26.943Z,19.80
2023-05-19T10:21:55.154Z,20.01
2023-05-19T10:24:23.319Z,20.17
2023-05-19T10:26:54.892Z,19.95
2023-05-19T10:29:26.816Z,20.14
2023-05-19T10:31:55.702Z,20.05
2023-05-19T10:34:42.027Z,20.38
2023-05-19T10:37:17.975Z,20.53
2023-05-19T10:39:46.409Z,20.70
2023-05-19T10:42:18.315Z,20.70
2023-05-19T10:44:53.450Z,20.77
2023-05-19T10:47:25.047Z,20.94
2023-05-19T10:49:55.788Z,21.04
2023-05-19T10:52:26.158Z,20.90
2023-05-19T10:54:55.131Z,20.99
2023-05-19T10:57:27.678Z,21.27
2023-05-19T10:59:57.034Z,21.42
2023-05-19T11:02:46.121Z,21.56
2023-05-19T11:05:18.159Z,21.50
2023-05-19T11:07:56.211Z,21.29
2023-05-19T11:10:24.691Z,21.23
2023-05-19T11:12:53.250Z,21.24
2023-05-19T11:15:27.451Z,21.39
2023-05-19T11:17:56.376Z,21.39
2023-05-19T11:20:27.224Z,20.47
2023-05-19T11:23:08.378Z,20.80
2023-05-19T11:25:43.932Z,21.41
2023-05-19T11:28:13.333Z,21.48
2023-05-19T11:30:44.631Z,21.44
2023-05-19T11:33:13.479Z,21.91
2023-05-19T11:35:43.459Z,22.19
2023-05-19T11:38:12.570Z,22.11
2023-05-19T11:40:41.160Z,22.08
2023-05-19T11:43:09.143Z,22.19
2023-05-19T11:45:37.572Z,22.07
2023-05-19T11:48:07.041Z,22.57
2023-05-19T11:50:36.984Z,22.71
2023-05-19T11:53:06.471Z,22.69
2023-05-19T11:55:34.503Z,22.24
2023-05-19T11:58:05.456Z,22.41
2023-05-19T12:00:39.450Z,22.59
2023-05-19T12:03:08.333Z,22.71
2023-05-19T12:05:42.070Z,23.16
2023-05-19T12:08:12.850Z,23.04
2023-05-19T12:10:41.525Z,23.20
2023-05-19T12:13:10.555Z,23.23
2023-05-19T12:15:39.419Z,22.96
2023-05-19T12:18:07.820Z,23.23
2023-05-19T12:20:36.606Z,23.32
2023-05-19T12:23:04.834Z,23.48
2023-05-19T12:25:34.494Z,23.51
2023-05-19T12:28:04.571Z,23.90
2023-05-19T12:30:34.420Z,23.69
2023-05-19T12:33:03.735Z,24.05
2023-05-19T12:35:33.539Z,23.94
2023-05-19T12:38:04.565Z,24.06
2023-05-19T12:40:35.135Z,24.21
2023-05-19T12:43:03.606Z,23.25
2023-05-19T12:45:35.602Z,23.23
2023-05-19T12:48:05.388Z,23.33
2023-05-19T12:50:34.189Z,23.70
2023-05-19T12:53:02.582Z,23.75
2023-05-19T12:55:31.141Z,24.10
2023-05-19T12:58:00.473Z,24.41
2023-05-19T13:00:31.164Z,24.19
2023-05-19T13:03:04.985Z,23.98
2023-05-19T13:05:34.794Z,24.27
2023-05-19T13:08:05.573Z,24.00
2023-05-19T13:10:34.987Z,24.62
2023-05-19T13:13:07.465Z,24.56
2023-05-19T13:15:37.980Z,24.67
2023-05-19T13:18:09.026Z,24.41
2023-05-19T13:20:37.383Z,24.17
2023-05-19T13:23:05.991Z,24.23
2023-05-19T13:25:34.449Z,24.25
2023-05-19T13:28:05.256Z,24.63
2023-05-19T13:30:39.524Z,24.86
2023-05-19T13:33:08.091Z,25.13
2023-05-19T13:35:38.105Z,24.61
2023-05-19T13:38:06.824Z,24.48
2023-05-19T13:40:35.665Z,24.97
2023-05-19T13:43:04.261Z,25.04
2023-05-19T13:45:32.216Z,24.87
2023-05-19T13:48:01.686Z,24.57
2023-05-19T13:50:29.733Z,24.61
2023-05-19T13:52:57.662Z,24.47
2023-05-19T13:55:27.494Z,24.41
2023-05-19T13:57:55.970Z,25.34
2023-05-19T14:00:24.060Z,25.42
2023-05-19T14:02:52.779Z,25.37
2023-05-19T14:05:22.341Z,25.27
2023-05-19T14:07:50.320Z,25.60
2023-05-19T14:10:18.333Z,25.85
2023-05-19T14:13:14.020Z,26.31
2023-05-19T14:15:37.955Z,26.16
2023-05-19T14:18:07.028Z,25.14
2023-05-19T14:20:36.708Z,25.57
2023-05-19T14:23:04.830Z,24.99
2023-05-19T14:25:32.863Z,24.23
2023-05-19T14:28:00.997Z,24.04
2023-05-19T14:30:29.070Z,24.64
2023-05-19T14:32:57.420Z,24.64
2023-05-19T14:35:26.100Z,25.44
2023-05-19T14:37:55.549Z,25.88
2023-05-19T14:40:23.519Z,25.99
2023-05-19T14:42:51.480Z,26.02
2023-05-19T14:45:19.554Z,25.96
2023-05-19T14:47:48.037Z,26.26
2023-05-19T14:50:16.161Z,25.99
2023-05-19T14:52:44.097Z,25.87
2023-05-19T14:55:13.434Z,25.69
2023-05-19T14:57:41.393Z,25.38
2023-05-19T15:00:10.391Z,25.45
2023-05-19T15:02:38.426Z,25.88
2023-05-19T15:05:06.966Z,26.09
2023-05-19T15:07:34.921Z,25.59
2023-05-19T15:10:03.286Z,25.70
2023-05-19T15:12:34.859Z,25.00
2023-05-19T15:15:02.910Z,25.05
2023-05-19T15:17:30.990Z,24.69
2023-05-19T15:19:58.933Z,24.77
2023-05-19T15:22:27.715Z,25.47
2023-05-19T15:24:55.729Z,25.64
2023-05-19T15:27:23.959Z,25.72
2023-05-19T15:29:53.357Z,25.02
2023-05-19T15:32:21.393Z,25.36
2023-05-19T15:34:49.405Z,25.39
2023-05-19T15:37:17.452Z,24.94
2023-05-19T15:39:45.373Z,24.23
2023-05-19T15:42:13.336Z,24.05
2023-05-19T15:44:41.326Z,23.34
2023-05-19T15:47:10.789Z,23.23
2023-05-19T15:49:38.824Z,23.41
2023-05-19T15:52:07.370Z,23.48
2023-05-19T15:54:35.328Z,22.29
2023-05-19T15:57:03.244Z,22.77
2023-05-19T15:59:31.175Z,23.04
2023-05-19T16:01:59.177Z,22.93
2023-05-19T16:04:28.493Z,22.75
2023-05-19T16:06:56.582Z,23.40
2023-05-19T16:09:24.570Z,24.07
2023-05-19T16:11:52.529Z,24.81
2023-05-19T16:14:20.488Z,24.56
2023-05-19T16:16:48.499Z,24.37
2023-05-19T16:19:16.587Z,23.97
2023-05-19T16:21:45.965Z,23.60
2023-05-19T16:24:13.961Z,23.10
2023-05-19T16:26:41.967Z,22.99
2023-05-19T16:29:09.873Z,22.84
2023-05-19T16:31:37.879Z,22.82
2023-05-19T16:34:05.888Z,22.60
2023-05-19T16:36:33.950Z,22.83
2023-05-19T16:39:03.338Z,22.67
2023-05-19T16:41:31.261Z,22.42
2023-05-19T16:43:59.235Z,21.65
2023-05-19T16:46:29.093Z,22.54
2023-05-19T16:48:57.918Z,23.16
2023-05-19T16:51:25.856Z,22.84
2023-05-19T16:53:53.805Z,22.38
2023-05-19T16:56:23.197Z,22.74
2023-05-19T16:58:51.340Z,22.75
2023-05-19T17:01:19.304Z,22.70
2023-05-19T17:03:47.317Z,23.12
2023-05-19T17:06:15.359Z,23.31
2023-05-19T17:08:43.348Z,23.69
2023-05-19T17:11:11.486Z,23.54
2023-05-19T17:13:42.317Z,23.43
2023-05-19T17:16:10.503Z,23.31
2023-05-19T17:18:38.526Z,23.74
2023-05-19T17:21:06.523Z,23.34
2023-05-19T17:23:34.603Z,23.26
2023-05-19T17:26:03.272Z,23.35
2023-05-19T17:28:31.437Z,23.18
2023-05-19T17:31:01.484Z,22.87
2023-05-19T17:33:29.508Z,22.27
2023-05-19T17:35:57.630Z,22.02
2023-05-19T17:38:25.658Z,22.07
2023-05-19T17:40:53.798Z,21.71
2023-05-19T17:43:21.721Z,21.69
2023-05-19T17:45:49.693Z,21.14
2023-05-19T17:48:19.028Z,21.09
2023-05-19T17:50:56.255Z,20.85
2023-05-19T17:53:24.725Z,20.67
2023-05-19T17:55:54.528Z,20.42
2023-05-19T17:58:23.008Z,20.48
2023-05-19T18:00:51.620Z,20.15
2023-05-19T18:03:21.684Z,20.47
2023-05-19T18:05:50.460Z,20.14
2023-05-19T18:08:18.785Z,19.96
2023-05-19T18:10:48.601Z,20.18
2023-05-19T18:13:16.582Z,20.15
2023-05-19T18:15:44.568Z,20.18
2023-05-19T18:18:12.776Z,19.72
2023-05-19T18:20:44.778Z,19.59
2023-05-19T18:23:12.833Z,19.28
2023-05-19T18:25:40.799Z,19.64
2023-05-19T18:28:09.161Z,19.67
2023-05-19T18:30:37.093Z,19.68
2023-05-19T18:33:05.898Z,19.58
2023-05-19T18:35:33.913Z,19.29
2023-05-19T18:38:03.222Z,19.13
2023-05-19T18:40:31.395Z,18.93
2023-05-19T18:42:59.587Z,18.93
2023-05-19T18:45:27.535Z,18.83
2023-05-19T18:47:55.496Z,18.94
2023-05-19T18:50:23.526Z,18.70
2023-05-19T18:52:51.481Z,18.72
2023-05-19T18:55:20.785Z,18.56
2023-05-19T18:57:48.762Z,18.25
2023-05-19T19:00:18.128Z,18.19
2023-05-19T19:02:46.095Z,18.13
2023-05-19T19:05:14.095Z,18.30
2023-05-19T19:07:43.191Z,18.39
2023-05-19T19:10:11.262Z,18.32
2023-05-19T19:12:43.013Z,18.32
2023-05-19T19:15:12.114Z,18.21
2023-05-19T19:17:41.210Z,18.07
2023-05-19T19:20:10.222Z,17.98
2023-05-19T19:22:38.305Z,17.88
2023-05-19T19:25:06.994Z,18.00
2023-05-19T19:27:35.739Z,17.92
2023-05-19T19:30:05.880Z,17.85
2023-05-19T19:32:33.950Z,18.01
2023-05-19T19:35:01.973Z,17.74
2023-05-19T19:37:29.968Z,17.81
2023-05-19T19:39:57.940Z,17.83
2023-05-19T19:42:25.904Z,17.58
2023-05-19T19:44:56.133Z,17.48
2023-05-19T19:47:25.554Z,17.74
2023-05-19T19:49:53.510Z,17.58
2023-05-19T19:52:21.489Z,17.33
2023-05-19T19:54:49.428Z,17.43
2023-05-19T19:57:17.766Z,17.43
2023-05-19T19:59:45.813Z,17.38
2023-05-19T20:02:13.781Z,17.20
2023-05-19T20:04:57.459Z,16.87
2023-05-19T20:07:25.499Z,17.04
2023-05-19T20:09:53.467Z,17.01
2023-05-19T20:12:21.404Z,17.04
2023-05-19T20:14:51.420Z,16.99
2023-05-19T20:17:19.362Z,17.08
2023-05-19T20:19:48.791Z,17.05
2023-05-19T20:22:16.753Z,17.04
2023-05-19T20:24:44.801Z,17.05
2023-05-19T20:27:12.747Z,17.03
2023-05-19T20:29:40.691Z,17.02
2023-05-19T20:32:08.700Z,16.93
2023-05-19T20:34:36.809Z,16.98
2023-05-19T20:37:06.475Z,16.91
2023-05-19T20:39:34.533Z,16.81
2023-05-19T20:42:02.499Z,16.75
2023-05-19T20:44:30.415Z,16.75
2023-05-19T20:46:58.368Z,16.83
2023-05-19T20:49:26.319Z,16.52
2023-05-19T20:51:54.690Z,16.42
2023-05-19T20:54:24.031Z,16.42
2023-05-19T20:56:52.537Z,16.29
2023-05-19T20:59:20.505Z,16.55
2023-05-19T21:01:48.487Z,16.47
2023-05-19T21:04:16.517Z,16.43
2023-05-19T21:06:44.550Z,16.38
2023-05-19T21:09:12.493Z,16.22
2023-05-19T21:11:42.333Z,16.32
2023-05-19T21:14:10.255Z,16.31
2023-05-19T21:16:38.970Z,16.37
2023-05-19T21:19:07.487Z,16.24
2023-05-19T21:21:36.266Z,16.20
2023-05-19T21:24:04.372Z,16.00
2023-05-19T21:26:32.284Z,15.96
2023-05-19T21:29:01.597Z,16.00
2023-05-19T21:31:29.615Z,15.93
2023-05-19T21:33:57.548Z,15.88
2023-05-19T21:36:25.756Z,15.81
2023-05-19T21:38:53.730Z,15.90
2023-05-19T21:41:22.382Z,16.07
2023-05-19T21:43:50.378Z,15.84
2023-05-19T21:46:19.765Z,15.96
2023-05-19T21:48:47.697Z,15.89
2023-05-19T21:51:15.688Z,15.87
2023-05-19T21:53:43.617Z,15.73
2023-05-19T21:56:11.563Z,15.76
2023-05-19T21:58:39.730Z,15.77
2023-05-19T22:01:08.050Z,15.73
2023-05-19T22:03:37.429Z,15.66
2023-05-19T22:06:06.567Z,15.63
2023-05-19T22:08:34.520Z,15.51
2023-05-19T22:11:02.456Z,15.39
2023-05-19T22:13:30.686Z,15.30
2023-05-19T22:15:58.671Z,15.28
2023-05-19T22:18:26.602Z,15.06
2023-05-19T22:20:55.964Z,15.09
2023-05-19T22:23:23.888Z,15.04
2023-05-19T22:25:51.833Z,14.93
2023-05-19T22:28:19.856Z,14.92
2023-05-19T22:30:47.816Z,14.91
2023-05-19T22:33:16.129Z,14.79
2023-05-19T22:35:44.196Z,14.60
2023-05-19T22:38:13.540Z,14.63
2023-05-19T22:40:41.484Z,14.63
2023-05-19T22:43:09.411Z,14.59
2023-05-19T22:45:37.526Z,14.50
2023-05-19T22:48:06.329Z,14.52
2023-05-19T22:50:34.366Z,14.41
2023-05-19T22:53:02.374Z,14.36
2023-05-19T22:55:32.286Z,14.41
2023-05-19T22:58:00.420Z,14.31
2023-05-19T23:00:28.335Z,14.29
2023-05-19T23:02:58.256Z,14.10
2023-05-19T23:05:26.376Z,14.04
2023-05-19T23:07:54.394Z,14.06
2023-05-19T23:10:22.315Z,13.86
2023-05-19T23:12:51.654Z,13.92
2023-05-19T23:15:19.657Z,13.91
2023-05-19T23:17:47.608Z,13.88
2023-05-19T23:20:15.677Z,13.90
2023-05-19T23:22:43.622Z,13.85
2023-05-19T23:25:11.584Z,13.68
2023-05-19T23:27:39.556Z,13.57
2023-05-19T23:30:10.185Z,13.56
2023-05-19T23:32:38.207Z,13.55
2023-05-19T23:35:13.882Z,13.59
2023-05-19T23:37:41.847Z,13.55
2023-05-19T23:40:10.415Z,13.51
2023-05-19T23:42:38.579Z,13.48
2023-05-19T23:45:09.288Z,13.32
2023-05-19T23:47:37.376Z,13.22
2023-05-19T23:50:05.839Z,13.21
2023-05-19T23:52:33.796Z,13.29
2023-05-19T23:55:03.290Z,13.31
2023-05-19T23:57:31.243Z,13.16
2023-05-19T23:59:59.828Z,13.00
